createdAt,value
2022-09-12T00:01:20.092Z,97682.94
2022-09-12T00:03:47.096Z,97680.50
2022-09-12T00:06:22.390Z,97683.09
2022-09-12T00:08:49.808Z,97683.91
2022-09-12T00:11:16.319Z,97673.88
2022-09-12T00:13:43.133Z,97670.09
2022-09-12T00:16:23.427Z,97665.81
2022-09-12T00:18:50.954Z,97672.78
2022-09-12T00:21:18.196Z,97672.03
2022-09-12T00:23:45.307Z,97666.03
2022-09-12T00:26:12.815Z,97664.00
2022-09-12T00:28:41.090Z,97657.50
2022-09-12T00:31:10.821Z,97662.25
2022-09-12T00:33:39.432Z,97660.72
2022-09-12T00:36:08.442Z,97658.09
2022-09-12T00:38:35.112Z,97656.88
2022-09-12T00:41:01.666Z,97653.59
2022-09-12T00:43:36.971Z,97658.44
2022-09-12T00:46:08.388Z,97657.63
2022-09-12T00:48:41.722Z,97663.50
2022-09-12T00:51:08.976Z,97663.41
2022-09-12T00:53:35.601Z,97657.28
2022-09-12T00:56:02.669Z,97660.28
2022-09-12T00:58:31.588Z,97650.66
2022-09-12T01:00:58.949Z,97657.25
2022-09-12T01:03:26.623Z,97653.56
2022-09-12T01:06:05.895Z,97649.28
2022-09-12T01:08:34.248Z,97644.53
2022-09-12T01:11:01.595Z,97647.50
2022-09-12T01:13:28.689Z,97653.03
2022-09-12T01:15:55.632Z,97648.94
2022-09-12T01:18:30.006Z,97645.16
2022-09-12T01:21:11.142Z,97639.44
2022-09-12T01:24:19.605Z,97640.53
2022-09-12T01:27:14.500Z,97635.84
2022-09-12T01:30:03.999Z,97636.53
2022-09-12T01:32:48.862Z,97638.91
2022-09-12T01:35:23.812Z,97640.16
2022-09-12T01:38:02.084Z,97641.03
2022-09-12T01:40:36.310Z,97642.16
2022-09-12T01:43:11.997Z,97643.81
2022-09-12T01:45:43.910Z,97639.94
2022-09-12T01:48:16.439Z,97633.97
2022-09-12T01:50:50.203Z,97635.63
2022-09-12T01:53:22.099Z,97635.63
2022-09-12T01:55:50.956Z,97631.81
2022-09-12T01:58:22.104Z,97630.91
2022-09-12T02:00:54.231Z,97629.75
2022-09-12T02:03:27.337Z,97631.63
2022-09-12T02:05:59.830Z,97622.19
2022-09-12T02:08:31.319Z,97623.81
2022-09-12T02:11:02.118Z,97628.94
2022-09-12T02:13:35.350Z,97626.88
2022-09-12T02:16:07.800Z,97624.00
2022-09-12T02:18:38.602Z,97622.16
2022-09-12T02:21:06.429Z,97613.22
2022-09-12T02:23:36.698Z,97614.38
2022-09-12T02:26:10.735Z,97615.41
2022-09-12T02:28:41.857Z,97607.81
2022-09-12T02:31:18.354Z,97612.97
2022-09-12T02:33:52.504Z,97614.78
2022-09-12T02:36:31.615Z,97615.03
2022-09-12T02:38:58.352Z,97610.59
2022-09-12T02:41:25.004Z,97604.69
2022-09-12T02:43:53.485Z,97602.25
2022-09-12T02:46:23.510Z,97598.56
2022-09-12T02:48:51.489Z,97600.41
2022-09-12T02:51:22.916Z,97599.41
2022-09-12T02:53:50.572Z,97605.13
2022-09-12T02:56:22.716Z,97602.91
2022-09-12T02:58:49.729Z,97603.91
2022-09-12T03:01:28.988Z,97604.31
2022-09-12T03:04:19.251Z,97599.28
2022-09-12T03:06:53.679Z,97605.13
2022-09-12T03:09:33.477Z,97600.91
2022-09-12T03:12:10.129Z,97595.59
2022-09-12T03:14:56.144Z,97596.31
2022-09-12T03:17:32.709Z,97593.47
2022-09-12T03:20:06.407Z,97595.91
2022-09-12T03:22:42.903Z,97601.03
2022-09-12T03:25:16.147Z,97598.22
2022-09-12T03:27:48.905Z,97601.19
2022-09-12T03:30:15.572Z,97605.50
2022-09-12T03:32:47.469Z,97610.09
2022-09-12T03:35:18.788Z,97603.88
2022-09-12T03:37:48.851Z,97609.63
2022-09-12T03:40:15.552Z,97599.16
2022-09-12T03:42:42.527Z,97605.13
2022-09-12T03:45:10.363Z,97604.81
2022-09-12T03:47:36.898Z,97606.56
2022-09-12T03:50:04.375Z,97606.59
2022-09-12T03:52:32.247Z,97609.56
2022-09-12T03:54:58.821Z,97610.34
2022-09-12T03:57:25.335Z,97609.94
2022-09-12T03:59:51.849Z,97602.03
2022-09-12T04:02:18.410Z,97610.16
2022-09-12T04:04:45.561Z,97602.59
2022-09-12T04:07:12.093Z,97605.28
2022-09-12T04:09:39.943Z,97617.06
2022-09-12T04:12:07.181Z,97608.97
2022-09-12T04:14:34.276Z,97606.72
2022-09-12T04:17:00.810Z,97613.59
2022-09-12T04:19:27.634Z,97609.97
2022-09-12T04:21:54.173Z,97605.59
2022-09-12T04:24:20.700Z,97598.81
2022-09-12T04:26:48.635Z,97604.06
2022-09-12T04:29:15.163Z,97604.44
2022-09-12T04:31:41.984Z,97608.53
2022-09-12T04:34:08.616Z,97604.03
2022-09-12T04:36:35.526Z,97600.84
2022-09-12T04:39:03.797Z,97595.28
2022-09-12T04:41:32.536Z,97601.44
2022-09-12T04:44:02.833Z,97604.94
2022-09-12T04:46:31.751Z,97596.75
2022-09-12T04:48:58.323Z,97602.03
2022-09-12T04:51:28.318Z,97607.81
2022-09-12T04:53:57.408Z,97605.38
2022-09-12T04:56:24.687Z,97607.63
2022-09-12T04:58:51.208Z,97607.53
2022-09-12T05:01:20.885Z,97615.22
2022-09-12T05:03:48.713Z,97612.34
2022-09-12T05:06:17.034Z,97616.47
2022-09-12T05:08:43.836Z,97615.41
2022-09-12T05:11:12.813Z,97607.31
2022-09-12T05:13:39.681Z,97616.34
2022-09-12T05:16:08.077Z,97623.13
2022-09-12T05:18:37.017Z,97620.16
2022-09-12T05:21:05.926Z,97623.34
2022-09-12T05:23:32.506Z,97618.72
2022-09-12T05:25:59.769Z,97616.03
2022-09-12T05:28:30.576Z,97626.50
2022-09-12T05:31:01.088Z,97628.84
2022-09-12T05:33:27.785Z,97635.63
2022-09-12T05:35:55.816Z,97636.13
2022-09-12T05:38:22.480Z,97631.41
2022-09-12T05:40:49.032Z,97644.22
2022-09-12T05:43:15.542Z,97647.22
2022-09-12T05:45:42.125Z,97644.72
2022-09-12T05:48:08.783Z,97653.25
2022-09-12T05:50:35.528Z,97638.47
2022-09-12T05:53:03.380Z,97637.25
2022-09-12T05:55:29.912Z,97642.25
2022-09-12T05:57:56.458Z,97649.84
2022-09-12T06:00:22.972Z,97651.69
2022-09-12T06:02:52.351Z,97649.16
2022-09-12T06:05:19.173Z,97643.31
2022-09-12T06:07:46.050Z,97642.25
2022-09-12T06:10:14.127Z,97644.28
2022-09-12T06:12:40.647Z,97649.09
2022-09-12T06:15:08.143Z,97650.44
2022-09-12T06:17:34.672Z,97645.59
2022-09-12T06:20:01.386Z,97645.66
2022-09-12T06:22:27.892Z,97642.31
2022-09-12T06:24:57.859Z,97647.34
2022-09-12T06:27:25.995Z,97648.69
2022-09-12T06:29:52.516Z,97646.09
2022-09-12T06:32:19.030Z,97648.09
2022-09-12T06:34:45.541Z,97645.66
2022-09-12T06:37:12.080Z,97649.13
2022-09-12T06:39:38.675Z,97645.13
2022-09-12T06:42:05.635Z,97653.63
2022-09-12T06:44:33.578Z,97645.16
2022-09-12T06:47:00.135Z,97645.41
2022-09-12T06:49:26.658Z,97648.44
2022-09-12T06:51:53.199Z,97650.44
2022-09-12T06:54:19.730Z,97651.53
2022-09-12T06:56:46.255Z,97646.75
2022-09-12T06:59:12.928Z,97653.13
2022-09-12T07:01:41.064Z,97647.50
2022-09-12T07:04:07.742Z,97651.19
2022-09-12T07:06:37.757Z,97653.31
2022-09-12T07:09:06.842Z,97653.72
2022-09-12T07:11:34.907Z,97651.25
2022-09-12T07:14:03.032Z,97651.13
2022-09-12T07:16:30.404Z,97652.00
2022-09-12T07:18:59.840Z,97649.44
2022-09-12T07:21:27.697Z,97646.22
2022-09-12T07:23:54.495Z,97641.63
2022-09-12T07:26:21.264Z,97641.19
2022-09-12T07:28:51.503Z,97648.03
2022-09-12T07:31:19.444Z,97651.59
2022-09-12T07:33:46.465Z,97646.06
2022-09-12T07:36:17.804Z,97646.19
2022-09-12T07:38:44.909Z,97652.59
2022-09-12T07:41:12.348Z,97651.00
2022-09-12T07:43:38.963Z,97647.47
2022-09-12T07:46:06.071Z,97649.28
2022-09-12T07:48:32.660Z,97650.44
2022-09-12T07:50:59.934Z,97655.09
2022-09-12T07:53:31.578Z,97656.97
2022-09-12T07:55:58.138Z,97657.63
2022-09-12T07:58:24.879Z,97664.84
2022-09-12T08:00:51.452Z,97659.94
2022-09-12T08:03:18.330Z,97660.44
2022-09-12T08:05:44.848Z,97661.78
2022-09-12T08:08:11.418Z,97653.75
2022-09-12T08:10:39.291Z,97659.78
2022-09-12T08:13:05.807Z,97654.97
2022-09-12T08:15:32.362Z,97667.53
2022-09-12T08:17:58.970Z,97671.50
2022-09-12T08:20:28.410Z,97674.56
2022-09-12T08:22:55.132Z,97673.41
2022-09-12T08:25:21.671Z,97674.22
2022-09-12T08:27:49.678Z,97681.91
2022-09-12T08:30:16.242Z,97684.53
2022-09-12T08:32:42.779Z,97682.56
2022-09-12T08:35:09.638Z,97690.25
2022-09-12T08:37:36.169Z,97684.19
2022-09-12T08:40:03.147Z,97682.69
2022-09-12T08:42:50.434Z,97691.56
2022-09-12T08:45:22.946Z,97681.88
2022-09-12T08:47:50.764Z,97680.91
2022-09-12T08:50:20.589Z,97670.72
2022-09-12T08:52:55.944Z,97676.03
2022-09-12T08:55:34.953Z,97669.53
2022-09-12T08:58:05.220Z,97666.22
2022-09-12T09:00:41.248Z,97663.19
2022-09-12T09:03:24.259Z,97659.53
2022-09-12T09:05:57.964Z,97661.66
2022-09-12T09:08:43.430Z,97660.84
2022-09-12T09:11:26.426Z,97658.25
2022-09-12T09:14:05.335Z,97653.63
2022-09-12T09:16:36.504Z,97659.41
2022-09-12T09:19:08.172Z,97661.78
2022-09-12T09:21:41.182Z,97666.19
2022-09-12T09:24:11.638Z,97667.50
2022-09-12T09:26:45.088Z,97671.72
2022-09-12T09:29:17.204Z,97668.44
2022-09-12T09:31:48.543Z,97662.22
2022-09-12T09:34:18.841Z,97660.50
2022-09-12T09:36:50.384Z,97660.47
2022-09-12T09:39:27.928Z,97661.63
2022-09-12T09:42:09.111Z,97656.50
2022-09-12T09:44:36.683Z,97657.66
2022-09-12T09:47:04.823Z,97657.97
2022-09-12T09:49:34.170Z,97647.78
2022-09-12T09:52:01.636Z,97647.91
2022-09-12T09:54:33.706Z,97642.19
2022-09-12T09:57:00.230Z,97649.28
2022-09-12T09:59:28.756Z,97644.63
2022-09-12T10:01:57.437Z,97653.50
2022-09-12T10:04:28.759Z,97651.66
2022-09-12T10:06:57.674Z,97648.16
2022-09-12T10:09:26.653Z,97636.06
2022-09-12T10:11:54.674Z,97639.22
2022-09-12T10:14:29.514Z,97635.47
2022-09-12T10:16:56.283Z,97638.59
2022-09-12T10:19:34.274Z,97640.44
2022-09-12T10:22:01.358Z,97640.09
2022-09-12T10:24:32.677Z,97638.25
2022-09-12T10:27:08.739Z,97635.53
2022-09-12T10:29:42.214Z,97628.38
2022-09-12T10:32:09.500Z,97630.25
2022-09-12T10:34:42.026Z,97624.31
2022-09-12T10:37:15.471Z,97632.00
2022-09-12T10:39:51.787Z,97617.25
2022-09-12T10:42:33.830Z,97625.56
2022-09-12T10:45:00.383Z,97626.94
2022-09-12T10:47:31.078Z,97628.03
2022-09-12T10:50:22.804Z,97635.81
2022-09-12T10:52:49.540Z,97628.13
2022-09-12T10:55:16.264Z,97630.00
2022-09-12T10:57:57.546Z,97624.06
2022-09-12T11:00:24.154Z,97622.22
2022-09-12T11:02:57.370Z,97620.81
2022-09-12T11:05:47.908Z,97607.41
2022-09-12T11:08:26.934Z,97612.78
2022-09-12T11:10:57.695Z,97609.66
2022-09-12T11:13:38.954Z,97603.56
2022-09-12T11:16:16.793Z,97601.31
2022-09-12T11:19:07.230Z,97592.63
2022-09-12T11:21:57.864Z,97592.72
2022-09-12T11:24:37.872Z,97590.97
2022-09-12T11:27:19.370Z,97585.69
2022-09-12T11:29:49.670Z,97577.88
2022-09-12T11:32:42.446Z,97573.22
2022-09-12T11:35:18.479Z,97570.78
2022-09-12T11:38:31.418Z,97579.75
2022-09-12T11:41:02.065Z,97578.47
2022-09-12T11:43:37.595Z,97579.59
2022-09-12T11:46:12.598Z,97575.59
2022-09-12T11:48:45.200Z,97566.88
2022-09-12T11:51:18.776Z,97559.03
2022-09-12T11:53:56.650Z,97566.25
2022-09-12T11:56:23.599Z,97567.59
2022-09-12T11:58:58.669Z,97563.75
2022-09-12T12:01:31.608Z,97558.41
2022-09-12T12:04:05.840Z,97555.13
2022-09-12T12:06:36.804Z,97565.47
2022-09-12T12:09:05.535Z,97565.72
2022-09-12T12:11:35.496Z,97560.13
2022-09-12T12:14:06.348Z,97566.34
2022-09-12T12:16:34.946Z,97559.44
2022-09-12T12:19:06.491Z,97559.72
2022-09-12T12:21:40.237Z,97550.25
2022-09-12T12:24:17.632Z,97544.28
2022-09-12T12:26:59.296Z,97539.03
2022-09-12T12:29:44.304Z,97544.47
2022-09-12T12:32:26.692Z,97545.97
2022-09-12T12:35:29.595Z,97536.41
2022-09-12T12:37:57.194Z,97542.91
2022-09-12T12:40:27.210Z,97536.09
2022-09-12T12:43:30.574Z,97535.59
2022-09-12T12:46:09.216Z,97539.88
2022-09-12T12:48:55.986Z,97542.53
2022-09-12T12:51:32.922Z,97533.16
2022-09-12T12:54:00.736Z,97529.66
2022-09-12T12:56:40.001Z,97511.31
2022-09-12T12:59:19.298Z,97517.50
2022-09-12T13:01:54.796Z,97520.47
2022-09-12T13:04:25.086Z,97509.25
2022-09-12T13:06:59.546Z,97506.94
2022-09-12T13:09:32.571Z,97505.84
2022-09-12T13:12:05.115Z,97508.75
2022-09-12T13:14:48.362Z,97504.44
2022-09-12T13:17:20.099Z,97502.72
2022-09-12T13:19:47.209Z,97503.31
2022-09-12T13:22:13.777Z,97497.03
2022-09-12T13:24:42.730Z,97493.50
2022-09-12T13:27:19.229Z,97491.19
2022-09-12T13:29:45.943Z,97489.72
2022-09-12T13:32:12.656Z,97483.25
2022-09-12T13:34:55.593Z,97481.22
2022-09-12T13:37:38.368Z,97475.69
2022-09-12T13:40:22.490Z,97472.00
2022-09-12T13:43:05.058Z,97462.69
2022-09-12T13:45:36.347Z,97468.56
2022-09-12T13:48:04.482Z,97470.56
2022-09-12T13:50:36.712Z,97463.69
2022-09-12T13:53:07.056Z,97464.91
2022-09-12T13:55:35.943Z,97457.31
2022-09-12T13:58:05.471Z,97461.78
2022-09-12T14:00:33.720Z,97467.47
2022-09-12T14:03:00.806Z,97465.66
2022-09-12T14:05:27.406Z,97466.16
2022-09-12T14:07:57.971Z,97460.06
2022-09-12T14:10:29.837Z,97458.69
2022-09-12T14:12:58.008Z,97443.25
2022-09-12T14:15:28.955Z,97447.78
2022-09-12T14:17:57.565Z,97443.38
2022-09-12T14:20:24.281Z,97443.16
2022-09-12T14:22:52.223Z,97442.88
2022-09-12T14:25:21.568Z,97451.16
2022-09-12T14:27:51.688Z,97439.69
2022-09-12T14:30:24.911Z,97442.72
2022-09-12T14:33:19.813Z,97444.25
2022-09-12T14:35:47.734Z,97442.19
2022-09-12T14:38:25.723Z,97431.31
2022-09-12T14:40:58.990Z,97426.38
2022-09-12T14:43:28.309Z,97433.75
2022-09-12T14:45:58.383Z,97434.88
2022-09-12T14:48:29.186Z,97430.81
2022-09-12T14:50:55.881Z,97431.38
2022-09-12T14:53:30.503Z,97435.50
2022-09-12T14:56:03.086Z,97430.50
2022-09-12T14:58:29.601Z,97432.06
2022-09-12T15:00:59.418Z,97426.31
2022-09-12T15:03:38.193Z,97430.81
2022-09-12T15:06:05.761Z,97432.72
2022-09-12T15:08:32.467Z,97430.59
2022-09-12T15:11:00.211Z,97421.72
2022-09-12T15:13:27.915Z,97436.06
2022-09-12T15:15:55.728Z,97426.06
2022-09-12T15:18:24.423Z,97426.22
2022-09-12T15:20:55.388Z,97423.03
2022-09-12T15:23:30.639Z,97420.88
2022-09-12T15:25:57.196Z,97418.03
2022-09-12T15:28:25.148Z,97426.59
2022-09-12T15:30:54.848Z,97419.97
2022-09-12T15:33:23.363Z,97411.97
2022-09-12T15:35:50.280Z,97422.84
2022-09-12T15:38:20.230Z,97413.78
2022-09-12T15:40:50.491Z,97415.91
2022-09-12T15:43:17.018Z,97420.44
2022-09-12T15:45:44.121Z,97416.31
2022-09-12T15:48:10.652Z,97420.13
2022-09-12T15:50:37.220Z,97404.91
2022-09-12T15:53:03.764Z,97417.94
2022-09-12T15:55:32.339Z,97415.94
2022-09-12T15:58:02.446Z,97406.94
2022-09-12T16:00:31.512Z,97407.97
2022-09-12T16:02:58.066Z,97409.72
2022-09-12T16:05:26.463Z,97411.28
2022-09-12T16:07:54.877Z,97402.41
2022-09-12T16:10:23.191Z,97404.19
2022-09-12T16:12:51.094Z,97398.03
2022-09-12T16:15:20.008Z,97394.81
2022-09-12T16:17:46.950Z,97401.16
2022-09-12T16:20:13.668Z,97399.03
2022-09-12T16:22:40.778Z,97397.41
2022-09-12T16:25:08.118Z,97399.84
2022-09-12T16:27:35.767Z,97390.75
2022-09-12T16:30:04.656Z,97399.69
2022-09-12T16:32:31.198Z,97384.34
2022-09-12T16:34:57.779Z,97383.41
2022-09-12T16:37:24.355Z,97386.44
2022-09-12T16:39:50.923Z,97377.88
2022-09-12T16:42:17.548Z,97380.97
2022-09-12T16:44:44.048Z,97386.34
2022-09-12T16:47:12.276Z,97383.41
2022-09-12T16:49:38.826Z,97379.53
2022-09-12T16:52:05.498Z,97380.59
2022-09-12T16:54:32.127Z,97375.34
2022-09-12T16:56:58.645Z,97381.84
2022-09-12T16:59:25.196Z,97384.34
2022-09-12T17:01:51.851Z,97377.94
2022-09-12T17:04:23.450Z,97377.94
2022-09-12T17:06:50.428Z,97383.38
2022-09-12T17:09:16.954Z,97376.78
2022-09-12T17:11:43.479Z,97379.84
2022-09-12T17:14:10.917Z,97381.28
2022-09-12T17:16:39.840Z,97380.19
2022-09-12T17:19:07.062Z,97379.16
2022-09-12T17:21:35.260Z,97383.75
2022-09-12T17:24:03.459Z,97381.28
2022-09-12T17:26:30.003Z,97375.38
2022-09-12T17:28:56.548Z,97372.06
2022-09-12T17:31:23.373Z,97372.91
2022-09-12T17:33:49.982Z,97372.03
2022-09-12T17:36:17.845Z,97372.44
2022-09-12T17:38:46.212Z,97386.41
2022-09-12T17:41:14.959Z,97386.19
2022-09-12T17:43:41.765Z,97393.63
2022-09-12T17:46:08.575Z,97380.09
2022-09-12T17:48:35.539Z,97386.13
2022-09-12T17:51:07.036Z,97381.50
2022-09-12T17:53:33.756Z,97381.56
2022-09-12T17:56:02.846Z,97395.81
2022-09-12T17:58:29.373Z,97387.31
2022-09-12T18:01:00.739Z,97391.75
2022-09-12T18:03:27.294Z,97387.69
2022-09-12T18:05:55.617Z,97392.78
2022-09-12T18:08:23.274Z,97396.44
2022-09-12T18:10:51.034Z,97395.63
2022-09-12T18:13:19.061Z,97387.78
2022-09-12T18:15:45.640Z,97394.78
2022-09-12T18:18:12.203Z,97391.94
2022-09-12T18:20:38.724Z,97393.63
2022-09-12T18:23:05.283Z,97386.63
2022-09-12T18:25:31.787Z,97382.44
2022-09-12T18:27:58.306Z,97379.22
2022-09-12T18:30:26.276Z,97384.03
2022-09-12T18:32:52.835Z,97380.09
2022-09-12T18:35:19.343Z,97383.69
2022-09-12T18:37:45.863Z,97383.41
2022-09-12T18:40:12.440Z,97379.84
2022-09-12T18:42:39.003Z,97389.47
2022-09-12T18:45:06.911Z,97389.84
2022-09-12T18:47:35.871Z,97389.53
2022-09-12T18:50:02.393Z,97389.41
2022-09-12T18:52:28.915Z,97388.28
2022-09-12T18:54:55.510Z,97385.19
2022-09-12T18:57:22.023Z,97391.59
2022-09-12T18:59:48.649Z,97394.53
2022-09-12T19:02:16.328Z,97395.19
2022-09-12T19:04:44.347Z,97392.25
2022-09-12T19:07:10.931Z,97396.00
2022-09-12T19:09:37.444Z,97395.50
2022-09-12T19:12:04.320Z,97396.03
2022-09-12T19:14:30.899Z,97396.84
2022-09-12T19:16:57.555Z,97383.75
2022-09-12T19:19:24.083Z,97394.22
2022-09-12T19:21:51.951Z,97391.44
2022-09-12T19:24:18.529Z,97391.75
2022-09-12T19:26:45.123Z,97400.22
2022-09-12T19:29:12.093Z,97403.97
2022-09-12T19:31:38.663Z,97408.69
2022-09-12T19:34:07.358Z,97391.06
2022-09-12T19:36:44.927Z,97386.97
2022-09-12T19:39:15.079Z,97390.22
2022-09-12T19:41:41.617Z,97389.59
2022-09-12T19:44:08.318Z,97381.28
2022-09-12T19:46:34.958Z,97383.19
2022-09-12T19:49:01.556Z,97382.88
2022-09-12T19:51:28.257Z,97376.84
2022-09-12T19:53:54.948Z,97383.19
2022-09-12T19:56:23.089Z,97375.66
2022-09-12T19:58:55.017Z,97369.78
2022-09-12T20:01:24.589Z,97364.22
2022-09-12T20:03:51.265Z,97366.84
2022-09-12T20:06:18.199Z,97365.19
2022-09-12T20:08:45.144Z,97369.28
2022-09-12T20:11:13.261Z,97369.94
2022-09-12T20:13:41.782Z,97377.59
2022-09-12T20:16:09.876Z,97381.78
2022-09-12T20:18:36.975Z,97381.97
2022-09-12T20:21:11.771Z,97384.94
2022-09-12T20:23:38.435Z,97377.72
2022-09-12T20:26:05.271Z,97378.34
2022-09-12T20:28:31.837Z,97384.91
2022-09-12T20:31:02.819Z,97378.22
2022-09-12T20:33:30.315Z,97370.81
2022-09-12T20:36:04.701Z,97372.91
2022-09-12T20:38:31.342Z,97373.88
2022-09-12T20:40:58.000Z,97371.94
2022-09-12T20:43:24.523Z,97355.47
2022-09-12T20:45:51.034Z,97354.50
2022-09-12T20:48:18.971Z,97352.03
2022-09-12T20:50:45.513Z,97345.00
2022-09-12T20:53:12.130Z,97352.50
2022-09-12T20:55:38.828Z,97352.78
2022-09-12T20:58:05.399Z,97360.63
2022-09-12T21:00:31.941Z,97363.88
2022-09-12T21:02:58.541Z,97366.53
2022-09-12T21:05:26.445Z,97358.56
2022-09-12T21:07:52.962Z,97361.00
2022-09-12T21:10:19.469Z,97373.75
2022-09-12T21:12:46.023Z,97373.56
2022-09-12T21:15:12.570Z,97369.44
2022-09-12T21:17:39.091Z,97377.09
2022-09-12T21:20:11.139Z,97369.59
2022-09-12T21:22:39.344Z,97368.66
2022-09-12T21:25:06.308Z,97368.03
2022-09-12T21:27:32.860Z,97368.88
2022-09-12T21:29:59.445Z,97362.31
2022-09-12T21:32:25.997Z,97359.88
2022-09-12T21:34:52.528Z,97355.63
2022-09-12T21:37:19.069Z,97351.22
2022-09-12T21:39:46.968Z,97357.28
2022-09-12T21:42:13.535Z,97356.63
2022-09-12T21:44:40.065Z,97362.31
2022-09-12T21:47:06.724Z,97362.47
2022-09-12T21:49:33.269Z,97360.91
2022-09-12T21:51:59.849Z,97360.44
2022-09-12T21:54:26.351Z,97362.75
2022-09-12T21:56:54.237Z,97376.59
2022-09-12T21:59:20.922Z,97377.31
2022-09-12T22:01:47.579Z,97373.09
2022-09-12T22:04:14.163Z,97374.31
2022-09-12T22:06:40.687Z,97375.28
2022-09-12T22:09:07.197Z,97371.63
2022-09-12T22:11:33.730Z,97366.75
2022-09-12T22:14:01.607Z,97361.56
2022-09-12T22:16:28.146Z,97361.09
2022-09-12T22:18:54.695Z,97359.28
2022-09-12T22:21:22.417Z,97350.97
2022-09-12T22:23:48.924Z,97351.75
2022-09-12T22:26:15.682Z,97354.63
2022-09-12T22:28:42.727Z,97344.00
2022-09-12T22:31:12.014Z,97348.34
2022-09-12T22:33:39.259Z,97345.91
2022-09-12T22:36:06.035Z,97352.31
2022-09-12T22:38:32.777Z,97344.19
2022-09-12T22:41:06.206Z,97349.09
2022-09-12T22:43:33.208Z,97345.69
2022-09-12T22:45:59.744Z,97342.94
2022-09-12T22:48:27.659Z,97336.19
2022-09-12T22:50:54.224Z,97335.06
2022-09-12T22:53:20.793Z,97337.84
2022-09-12T22:55:47.344Z,97333.75
2022-09-12T22:58:13.874Z,97322.28
2022-09-12T23:00:45.210Z,97321.88
2022-09-12T23:03:11.840Z,97327.94
2022-09-12T23:05:39.751Z,97319.63
2022-09-12T23:08:06.305Z,97316.66
2022-09-12T23:10:35.207Z,97315.84
2022-09-12T23:13:01.733Z,97315.31
2022-09-12T23:15:28.257Z,97313.25
2022-09-12T23:17:54.811Z,97315.06
2022-09-12T23:20:21.341Z,97305.16
2022-09-12T23:22:49.220Z,97306.78
2022-09-12T23:25:15.990Z,97297.09
2022-09-12T23:27:42.529Z,97296.91
2022-09-12T23:30:10.105Z,97294.31
2022-09-12T23:32:36.809Z,97287.47
2022-09-12T23:35:04.005Z,97282.91
2022-09-12T23:37:30.545Z,97279.28
2022-09-12T23:39:58.448Z,97280.44
2022-09-12T23:42:24.973Z,97281.00
2022-09-12T23:44:51.474Z,97276.47
2022-09-12T23:47:17.979Z,97279.78
2022-09-12T23:49:44.500Z,97271.69
2022-09-12T23:52:11.342Z,97271.69
2022-09-12T23:54:37.843Z,97272.13
2022-09-12T23:57:05.801Z,97266.22
2022-09-12T23:59:32.347Z,97276.91
